sensor_id;sensor_type;location;lat;lon;timestamp;P1;durP1;ratioP1;P2;durP2;ratioP2
7076;SDS011;3579;48.956;9.154;2023-07-20T00:01:48;2.30;;;2.10;;
7076;SDS011;3579;48.956;9.154;2023-07-20T00:04:14;2.63;;;2.20;;
7076;SDS011;3579;48.956;9.154;2023-07-20T00:06:40;2.43;;;2.10;;
7076;SDS011;3579;48.956;9.154;2023-07-20T00:09:06;2.00;;;1.80;;
7076;SDS011;3579;48.956;9.154;2023-07-20T00:11:35;2.40;;;2.07;;
7076;SDS011;3579;48.956;9.154;2023-07-20T00:14:05;2.27;;;2.07;;
7076;SDS011;3579;48.956;9.154;2023-07-20T00:16:31;2.30;;;2.10;;
7076;SDS011;3579;48.956;9.154;2023-07-20T00:18:58;2.37;;;2.17;;
7076;SDS011;3579;48.956;9.154;2023-07-20T00:21:24;2.13;;;1.93;;
7076;SDS011;3579;48.956;9.154;2023-07-20T00:23:50;2.30;;;2.10;;
7076;SDS011;3579;48.956;9.154;2023-07-20T00:26:16;2.27;;;2.07;;
7076;SDS011;3579;48.956;9.154;2023-07-20T00:28:43;2.30;;;2.10;;
7076;SDS011;3579;48.956;9.154;2023-07-20T00:31:09;2.27;;;2.07;;
7076;SDS011;3579;48.956;9.154;2023-07-20T00:33:35;2.27;;;2.07;;
7076;SDS011;3579;48.956;9.154;2023-07-20T00:36:01;2.10;;;1.90;;
7076;SDS011;3579;48.956;9.154;2023-07-20T00:38:27;2.87;;;2.00;;
7076;SDS011;3579;48.956;9.154;2023-07-20T00:40:53;2.03;;;1.83;;
7076;SDS011;3579;48.956;9.154;2023-07-20T00:43:19;1.87;;;1.77;;
7076;SDS011;3579;48.956;9.154;2023-07-20T00:45:45;1.83;;;1.73;;
7076;SDS011;3579;48.956;9.154;2023-07-20T00:48:11;2.63;;;2.03;;
7076;SDS011;3579;48.956;9.154;2023-07-20T00:50:39;2.30;;;2.10;;
7076;SDS011;3579;48.956;9.154;2023-07-20T00:53:05;2.17;;;1.97;;
7076;SDS011;3579;48.956;9.154;2023-07-20T00:55:32;2.23;;;2.00;;
7076;SDS011;3579;48.956;9.154;2023-07-20T00:57:59;2.37;;;2.10;;
7076;SDS011;3579;48.956;9.154;2023-07-20T01:00:25;2.30;;;2.10;;
7076;SDS011;3579;48.956;9.154;2023-07-20T01:02:51;1.90;;;1.80;;
7076;SDS011;3579;48.956;9.154;2023-07-20T01:05:18;2.50;;;2.10;;
7076;SDS011;3579;48.956;9.154;2023-07-20T01:13:32;2.10;;;1.90;;
7076;SDS011;3579;48.956;9.154;2023-07-20T01:16:01;2.10;;;1.90;;
7076;SDS011;3579;48.956;9.154;2023-07-20T01:18:28;2.10;;;1.90;;
7076;SDS011;3579;48.956;9.154;2023-07-20T01:20:56;2.20;;;2.00;;
7076;SDS011;3579;48.956;9.154;2023-07-20T01:26:09;2.40;;;2.20;;
7076;SDS011;3579;48.956;9.154;2023-07-20T01:31:28;1.80;;;1.70;;
7076;SDS011;3579;48.956;9.154;2023-07-20T01:33:58;1.93;;;1.80;;
7076;SDS011;3579;48.956;9.154;2023-07-20T01:36:27;2.10;;;1.90;;
7076;SDS011;3579;48.956;9.154;2023-07-20T01:38:56;2.13;;;1.93;;
7076;SDS011;3579;48.956;9.154;2023-07-20T01:41:22;2.00;;;1.90;;
7076;SDS011;3579;48.956;9.154;2023-07-20T01:43:48;2.20;;;2.00;;
7076;SDS011;3579;48.956;9.154;2023-07-20T01:46:15;2.00;;;1.80;;
7076;SDS011;3579;48.956;9.154;2023-07-20T01:48:41;2.00;;;1.80;;
7076;SDS011;3579;48.956;9.154;2023-07-20T01:51:07;2.20;;;2.00;;
7076;SDS011;3579;48.956;9.154;2023-07-20T01:53:33;2.60;;;1.97;;
7076;SDS011;3579;48.956;9.154;2023-07-20T01:55:59;2.27;;;2.07;;
7076;SDS011;3579;48.956;9.154;2023-07-20T01:58:25;2.63;;;2.10;;
7076;SDS011;3579;48.956;9.154;2023-07-20T02:00:51;2.07;;;1.83;;
7076;SDS011;3579;48.956;9.154;2023-07-20T02:03:17;2.23;;;2.00;;
7076;SDS011;3579;48.956;9.154;2023-07-20T02:05:43;2.40;;;2.10;;
7076;SDS011;3579;48.956;9.154;2023-07-20T02:08:10;1.70;;;1.60;;
7076;SDS011;3579;48.956;9.154;2023-07-20T02:10:36;1.93;;;1.77;;
7076;SDS011;3579;48.956;9.154;2023-07-20T02:13:02;2.10;;;1.80;;
7076;SDS011;3579;48.956;9.154;2023-07-20T02:15:28;2.20;;;2.00;;
7076;SDS011;3579;48.956;9.154;2023-07-20T02:17:54;2.97;;;1.87;;
7076;SDS011;3579;48.956;9.154;2023-07-20T02:20:20;2.20;;;2.00;;
7076;SDS011;3579;48.956;9.154;2023-07-20T02:22:46;2.23;;;2.03;;
7076;SDS011;3579;48.956;9.154;2023-07-20T02:25:18;1.93;;;1.80;;
7076;SDS011;3579;48.956;9.154;2023-07-20T02:27:44;2.13;;;1.90;;
7076;SDS011;3579;48.956;9.154;2023-07-20T02:30:10;2.03;;;1.87;;
7076;SDS011;3579;48.956;9.154;2023-07-20T02:32:36;2.00;;;1.80;;
7076;SDS011;3579;48.956;9.154;2023-07-20T02:35:02;2.13;;;1.93;;
7076;SDS011;3579;48.956;9.154;2023-07-20T02:37:29;1.70;;;1.60;;
7076;SDS011;3579;48.956;9.154;2023-07-20T02:39:55;2.17;;;1.97;;
7076;SDS011;3579;48.956;9.154;2023-07-20T02:42:23;2.00;;;1.80;;
7076;SDS011;3579;48.956;9.154;2023-07-20T02:44:51;2.53;;;1.83;;
7076;SDS011;3579;48.956;9.154;2023-07-20T02:47:17;1.90;;;1.73;;
7076;SDS011;3579;48.956;9.154;2023-07-20T02:49:43;2.03;;;1.83;;
7076;SDS011;3579;48.956;9.154;2023-07-20T02:52:09;1.90;;;1.77;;
7076;SDS011;3579;48.956;9.154;2023-07-20T02:54:35;2.10;;;1.90;;
7076;SDS011;3579;48.956;9.154;2023-07-20T02:57:01;2.03;;;1.87;;
7076;SDS011;3579;48.956;9.154;2023-07-20T02:59:27;2.23;;;2.03;;
7076;SDS011;3579;48.956;9.154;2023-07-20T03:01:54;2.00;;;1.80;;
7076;SDS011;3579;48.956;9.154;2023-07-20T03:04:21;1.80;;;1.63;;
7076;SDS011;3579;48.956;9.154;2023-07-20T03:06:47;2.10;;;1.90;;
7076;SDS011;3579;48.956;9.154;2023-07-20T03:09:13;2.20;;;1.90;;
7076;SDS011;3579;48.956;9.154;2023-07-20T03:11:39;2.10;;;1.90;;
7076;SDS011;3579;48.956;9.154;2023-07-20T03:14:05;2.20;;;1.97;;
7076;SDS011;3579;48.956;9.154;2023-07-20T03:16:31;2.00;;;1.80;;
7076;SDS011;3579;48.956;9.154;2023-07-20T03:18:59;2.07;;;1.87;;
7076;SDS011;3579;48.956;9.154;2023-07-20T03:21:26;1.90;;;1.77;;
7076;SDS011;3579;48.956;9.154;2023-07-20T03:23:52;1.90;;;1.77;;
7076;SDS011;3579;48.956;9.154;2023-07-20T03:26:18;1.90;;;1.80;;
7076;SDS011;3579;48.956;9.154;2023-07-20T03:28:44;2.13;;;1.93;;
7076;SDS011;3579;48.956;9.154;2023-07-20T03:31:10;2.30;;;2.00;;
7076;SDS011;3579;48.956;9.154;2023-07-20T03:33:36;2.07;;;1.87;;
7076;SDS011;3579;48.956;9.154;2023-07-20T03:36:02;2.03;;;1.83;;
7076;SDS011;3579;48.956;9.154;2023-07-20T03:38:28;2.83;;;2.00;;
7076;SDS011;3579;48.956;9.154;2023-07-20T03:40:56;2.00;;;1.80;;
7076;SDS011;3579;48.956;9.154;2023-07-20T03:43:23;2.20;;;2.00;;
7076;SDS011;3579;48.956;9.154;2023-07-20T03:45:50;1.90;;;1.80;;
7076;SDS011;3579;48.956;9.154;2023-07-20T03:48:18;2.00;;;1.90;;
7076;SDS011;3579;48.956;9.154;2023-07-20T03:50:46;1.70;;;1.60;;
7076;SDS011;3579;48.956;9.154;2023-07-20T03:53:13;2.00;;;1.80;;
7076;SDS011;3579;48.956;9.154;2023-07-20T03:55:40;2.13;;;1.70;;
7076;SDS011;3579;48.956;9.154;2023-07-20T03:58:09;2.10;;;1.80;;
7076;SDS011;3579;48.956;9.154;2023-07-20T04:00:35;1.80;;;1.70;;
7076;SDS011;3579;48.956;9.154;2023-07-20T04:03:01;2.00;;;1.80;;
7076;SDS011;3579;48.956;9.154;2023-07-20T04:05:28;2.20;;;2.00;;
7076;SDS011;3579;48.956;9.154;2023-07-20T04:07:54;1.90;;;1.73;;
7076;SDS011;3579;48.956;9.154;2023-07-20T04:10:21;1.70;;;1.60;;
7076;SDS011;3579;48.956;9.154;2023-07-20T04:12:47;1.80;;;1.70;;
7076;SDS011;3579;48.956;9.154;2023-07-20T04:15:13;2.07;;;1.87;;
7076;SDS011;3579;48.956;9.154;2023-07-20T04:17:40;2.00;;;1.83;;
7076;SDS011;3579;48.956;9.154;2023-07-20T04:20:08;1.77;;;1.67;;
7076;SDS011;3579;48.956;9.154;2023-07-20T04:22:34;1.80;;;1.70;;
7076;SDS011;3579;48.956;9.154;2023-07-20T04:25:01;2.10;;;1.90;;
7076;SDS011;3579;48.956;9.154;2023-07-20T04:27:27;2.00;;;1.80;;
7076;SDS011;3579;48.956;9.154;2023-07-20T04:29:53;2.80;;;2.20;;
7076;SDS011;3579;48.956;9.154;2023-07-20T04:32:19;2.23;;;1.90;;
7076;SDS011;3579;48.956;9.154;2023-07-20T04:34:45;2.87;;;2.07;;
7076;SDS011;3579;48.956;9.154;2023-07-20T04:37:11;3.80;;;2.30;;
7076;SDS011;3579;48.956;9.154;2023-07-20T04:39:37;3.10;;;2.10;;
7076;SDS011;3579;48.956;9.154;2023-07-20T04:42:03;3.50;;;2.10;;
7076;SDS011;3579;48.956;9.154;2023-07-20T04:44:29;3.40;;;2.50;;
7076;SDS011;3579;48.956;9.154;2023-07-20T04:46:55;4.17;;;2.20;;
7076;SDS011;3579;48.956;9.154;2023-07-20T04:49:21;5.63;;;2.70;;
7076;SDS011;3579;48.956;9.154;2023-07-20T04:51:47;4.17;;;2.40;;
7076;SDS011;3579;48.956;9.154;2023-07-20T04:54:13;4.27;;;2.50;;
7076;SDS011;3579;48.956;9.154;2023-07-20T04:56:40;3.43;;;2.37;;
7076;SDS011;3579;48.956;9.154;2023-07-20T04:59:06;3.87;;;2.60;;
7076;SDS011;3579;48.956;9.154;2023-07-20T05:01:32;4.23;;;2.00;;
7076;SDS011;3579;48.956;9.154;2023-07-20T05:03:58;4.00;;;2.67;;
7076;SDS011;3579;48.956;9.154;2023-07-20T05:06:24;4.60;;;2.60;;
7076;SDS011;3579;48.956;9.154;2023-07-20T05:08:51;3.80;;;2.60;;
7076;SDS011;3579;48.956;9.154;2023-07-20T05:11:17;5.77;;;2.60;;
7076;SDS011;3579;48.956;9.154;2023-07-20T05:13:43;3.37;;;2.50;;
7076;SDS011;3579;48.956;9.154;2023-07-20T05:16:09;4.73;;;2.40;;
7076;SDS011;3579;48.956;9.154;2023-07-20T05:18:35;3.57;;;2.20;;
7076;SDS011;3579;48.956;9.154;2023-07-20T05:21:01;4.77;;;2.60;;
7076;SDS011;3579;48.956;9.154;2023-07-20T05:23:27;8.33;;;2.60;;
7076;SDS011;3579;48.956;9.154;2023-07-20T05:25:54;3.97;;;2.70;;
7076;SDS011;3579;48.956;9.154;2023-07-20T05:28:22;7.30;;;2.80;;
7076;SDS011;3579;48.956;9.154;2023-07-20T05:30:54;5.43;;;2.97;;
7076;SDS011;3579;48.956;9.154;2023-07-20T05:33:21;7.80;;;2.70;;
7076;SDS011;3579;48.956;9.154;2023-07-20T05:35:47;5.13;;;2.70;;
7076;SDS011;3579;48.956;9.154;2023-07-20T05:38:13;5.73;;;2.80;;
7076;SDS011;3579;48.956;9.154;2023-07-20T05:40:40;4.20;;;2.93;;
7076;SDS011;3579;48.956;9.154;2023-07-20T05:43:09;3.77;;;2.50;;
7076;SDS011;3579;48.956;9.154;2023-07-20T05:45:36;6.33;;;3.43;;
7076;SDS011;3579;48.956;9.154;2023-07-20T05:48:02;5.03;;;2.17;;
7076;SDS011;3579;48.956;9.154;2023-07-20T05:50:28;4.07;;;2.57;;
7076;SDS011;3579;48.956;9.154;2023-07-20T05:52:54;6.50;;;2.50;;
7076;SDS011;3579;48.956;9.154;2023-07-20T05:55:20;6.03;;;2.50;;
7076;SDS011;3579;48.956;9.154;2023-07-20T05:57:46;5.03;;;2.77;;
7076;SDS011;3579;48.956;9.154;2023-07-20T06:00:13;5.63;;;2.70;;
7076;SDS011;3579;48.956;9.154;2023-07-20T06:02:41;4.93;;;2.60;;
7076;SDS011;3579;48.956;9.154;2023-07-20T06:05:07;6.87;;;2.50;;
7076;SDS011;3579;48.956;9.154;2023-07-20T06:07:37;7.50;;;2.97;;
7076;SDS011;3579;48.956;9.154;2023-07-20T06:10:04;10.37;;;2.87;;
7076;SDS011;3579;48.956;9.154;2023-07-20T06:12:31;5.20;;;2.70;;
7076;SDS011;3579;48.956;9.154;2023-07-20T06:15:01;3.80;;;2.37;;
7076;SDS011;3579;48.956;9.154;2023-07-20T06:17:28;5.00;;;2.30;;
7076;SDS011;3579;48.956;9.154;2023-07-20T06:19:54;4.33;;;2.60;;
7076;SDS011;3579;48.956;9.154;2023-07-20T06:22:20;8.07;;;2.70;;
7076;SDS011;3579;48.956;9.154;2023-07-20T06:24:46;4.37;;;2.60;;
7076;SDS011;3579;48.956;9.154;2023-07-20T06:27:12;6.50;;;2.80;;
7076;SDS011;3579;48.956;9.154;2023-07-20T06:29:38;7.67;;;2.70;;
7076;SDS011;3579;48.956;9.154;2023-07-20T06:32:05;6.90;;;3.03;;
7076;SDS011;3579;48.956;9.154;2023-07-20T06:34:32;7.40;;;2.70;;
7076;SDS011;3579;48.956;9.154;2023-07-20T06:37:02;5.67;;;2.50;;
7076;SDS011;3579;48.956;9.154;2023-07-20T06:39:29;5.83;;;2.43;;
7076;SDS011;3579;48.956;9.154;2023-07-20T06:41:56;8.73;;;2.60;;
7076;SDS011;3579;48.956;9.154;2023-07-20T06:44:22;3.93;;;2.50;;
7076;SDS011;3579;48.956;9.154;2023-07-20T06:46:48;7.93;;;2.47;;
7076;SDS011;3579;48.956;9.154;2023-07-20T06:49:24;4.73;;;2.30;;
7076;SDS011;3579;48.956;9.154;2023-07-20T06:51:51;7.80;;;2.50;;
7076;SDS011;3579;48.956;9.154;2023-07-20T06:54:18;4.00;;;2.33;;
7076;SDS011;3579;48.956;9.154;2023-07-20T06:56:44;5.47;;;2.87;;
7076;SDS011;3579;48.956;9.154;2023-07-20T06:59:10;6.17;;;2.50;;
7076;SDS011;3579;48.956;9.154;2023-07-20T07:01:36;6.43;;;2.77;;
7076;SDS011;3579;48.956;9.154;2023-07-20T07:04:02;4.67;;;2.47;;
7076;SDS011;3579;48.956;9.154;2023-07-20T07:06:29;3.47;;;2.30;;
7076;SDS011;3579;48.956;9.154;2023-07-20T07:08:55;7.87;;;2.40;;
7076;SDS011;3579;48.956;9.154;2023-07-20T07:11:21;4.73;;;2.40;;
7076;SDS011;3579;48.956;9.154;2023-07-20T07:13:48;6.03;;;2.57;;
7076;SDS011;3579;48.956;9.154;2023-07-20T07:16:16;5.57;;;2.20;;
7076;SDS011;3579;48.956;9.154;2023-07-20T07:18:45;3.57;;;2.03;;
7076;SDS011;3579;48.956;9.154;2023-07-20T07:21:11;5.03;;;2.03;;
7076;SDS011;3579;48.956;9.154;2023-07-20T07:23:38;7.83;;;2.40;;
7076;SDS011;3579;48.956;9.154;2023-07-20T07:26:05;4.77;;;2.33;;
7076;SDS011;3579;48.956;9.154;2023-07-20T07:28:31;6.13;;;2.50;;
7076;SDS011;3579;48.956;9.154;2023-07-20T07:30:57;9.30;;;2.67;;
7076;SDS011;3579;48.956;9.154;2023-07-20T07:33:23;4.43;;;2.30;;
7076;SDS011;3579;48.956;9.154;2023-07-20T07:35:52;9.07;;;2.50;;
7076;SDS011;3579;48.956;9.154;2023-07-20T07:38:19;6.03;;;2.33;;
7076;SDS011;3579;48.956;9.154;2023-07-20T07:40:45;4.80;;;2.30;;
7076;SDS011;3579;48.956;9.154;2023-07-20T07:43:12;7.33;;;2.77;;
7076;SDS011;3579;48.956;9.154;2023-07-20T07:45:39;5.10;;;2.60;;
7076;SDS011;3579;48.956;9.154;2023-07-20T07:48:05;6.30;;;2.40;;
7076;SDS011;3579;48.956;9.154;2023-07-20T07:50:33;6.70;;;2.37;;
7076;SDS011;3579;48.956;9.154;2023-07-20T07:52:59;3.13;;;2.30;;
7076;SDS011;3579;48.956;9.154;2023-07-20T07:55:26;4.63;;;2.50;;
7076;SDS011;3579;48.956;9.154;2023-07-20T07:57:52;7.37;;;2.60;;
7076;SDS011;3579;48.956;9.154;2023-07-20T08:00:18;8.47;;;2.63;;
7076;SDS011;3579;48.956;9.154;2023-07-20T08:02:45;6.80;;;2.73;;
7076;SDS011;3579;48.956;9.154;2023-07-20T08:05:13;12.17;;;2.53;;
7076;SDS011;3579;48.956;9.154;2023-07-20T08:07:40;7.57;;;2.33;;
7076;SDS011;3579;48.956;9.154;2023-07-20T08:10:06;6.13;;;2.50;;
7076;SDS011;3579;48.956;9.154;2023-07-20T08:12:33;5.60;;;2.33;;
7076;SDS011;3579;48.956;9.154;2023-07-20T08:14:59;7.03;;;2.53;;
7076;SDS011;3579;48.956;9.154;2023-07-20T08:17:25;5.40;;;2.30;;
7076;SDS011;3579;48.956;9.154;2023-07-20T08:19:52;4.50;;;2.20;;
7076;SDS011;3579;48.956;9.154;2023-07-20T08:22:19;6.27;;;2.47;;
7076;SDS011;3579;48.956;9.154;2023-07-20T08:24:46;5.43;;;2.30;;
7076;SDS011;3579;48.956;9.154;2023-07-20T08:27:13;7.27;;;2.10;;
7076;SDS011;3579;48.956;9.154;2023-07-20T08:29:39;5.83;;;2.47;;
7076;SDS011;3579;48.956;9.154;2023-07-20T08:32:06;5.30;;;2.10;;
7076;SDS011;3579;48.956;9.154;2023-07-20T08:34:32;6.57;;;2.40;;
7076;SDS011;3579;48.956;9.154;2023-07-20T08:36:58;2.27;;;1.90;;
7076;SDS011;3579;48.956;9.154;2023-07-20T08:39:24;4.87;;;2.17;;
7076;SDS011;3579;48.956;9.154;2023-07-20T08:41:51;3.67;;;1.90;;
7076;SDS011;3579;48.956;9.154;2023-07-20T08:44:20;7.30;;;2.73;;
7076;SDS011;3579;48.956;9.154;2023-07-20T08:46:46;5.60;;;2.57;;
7076;SDS011;3579;48.956;9.154;2023-07-20T08:49:14;6.57;;;2.13;;
7076;SDS011;3579;48.956;9.154;2023-07-20T08:51:43;4.43;;;2.20;;
7076;SDS011;3579;48.956;9.154;2023-07-20T08:54:12;4.13;;;2.30;;
7076;SDS011;3579;48.956;9.154;2023-07-20T08:56:40;5.23;;;2.10;;
7076;SDS011;3579;48.956;9.154;2023-07-20T08:59:08;4.20;;;2.20;;
7076;SDS011;3579;48.956;9.154;2023-07-20T09:01:34;4.40;;;2.37;;
7076;SDS011;3579;48.956;9.154;2023-07-20T09:04:04;2.93;;;1.90;;
7076;SDS011;3579;48.956;9.154;2023-07-20T09:06:31;3.53;;;2.23;;
7076;SDS011;3579;48.956;9.154;2023-07-20T09:08:59;6.70;;;2.00;;
7076;SDS011;3579;48.956;9.154;2023-07-20T09:11:26;6.00;;;2.20;;
7076;SDS011;3579;48.956;9.154;2023-07-20T09:14:12;7.70;;;2.20;;
7076;SDS011;3579;48.956;9.154;2023-07-20T09:16:52;10.93;;;2.47;;
7076;SDS011;3579;48.956;9.154;2023-07-20T09:19:20;2.63;;;1.90;;
7076;SDS011;3579;48.956;9.154;2023-07-20T09:21:50;7.53;;;2.17;;
7076;SDS011;3579;48.956;9.154;2023-07-20T09:24:17;4.93;;;2.00;;
7076;SDS011;3579;48.956;9.154;2023-07-20T09:26:45;3.67;;;2.23;;
7076;SDS011;3579;48.956;9.154;2023-07-20T09:29:14;4.17;;;2.10;;
7076;SDS011;3579;48.956;9.154;2023-07-20T09:31:43;6.60;;;2.23;;
7076;SDS011;3579;48.956;9.154;2023-07-20T09:34:30;4.97;;;2.20;;
7076;SDS011;3579;48.956;9.154;2023-07-20T09:36:59;2.27;;;1.70;;
7076;SDS011;3579;48.956;9.154;2023-07-20T09:39:26;3.27;;;2.00;;
7076;SDS011;3579;48.956;9.154;2023-07-20T09:41:52;3.80;;;1.80;;
7076;SDS011;3579;48.956;9.154;2023-07-20T09:44:19;2.70;;;1.80;;
7076;SDS011;3579;48.956;9.154;2023-07-20T09:46:48;4.63;;;2.03;;
7076;SDS011;3579;48.956;9.154;2023-07-20T09:49:19;4.00;;;2.10;;
7076;SDS011;3579;48.956;9.154;2023-07-20T09:51:45;4.40;;;2.03;;
7076;SDS011;3579;48.956;9.154;2023-07-20T09:54:13;3.60;;;2.10;;
7076;SDS011;3579;48.956;9.154;2023-07-20T09:56:39;3.83;;;2.13;;
7076;SDS011;3579;48.956;9.154;2023-07-20T09:59:07;3.63;;;1.80;;
7076;SDS011;3579;48.956;9.154;2023-07-20T10:01:34;3.23;;;1.80;;
7076;SDS011;3579;48.956;9.154;2023-07-20T10:04:02;3.10;;;1.97;;
7076;SDS011;3579;48.956;9.154;2023-07-20T10:06:30;2.73;;;1.83;;
7076;SDS011;3579;48.956;9.154;2023-07-20T10:09:02;3.50;;;1.90;;
7076;SDS011;3579;48.956;9.154;2023-07-20T10:11:33;4.27;;;1.83;;
7076;SDS011;3579;48.956;9.154;2023-07-20T10:14:03;4.90;;;2.00;;
7076;SDS011;3579;48.956;9.154;2023-07-20T10:16:39;5.53;;;2.00;;
7076;SDS011;3579;48.956;9.154;2023-07-20T10:19:15;12.57;;;1.97;;
7076;SDS011;3579;48.956;9.154;2023-07-20T10:22:12;5.37;;;2.10;;
7076;SDS011;3579;48.956;9.154;2023-07-20T10:24:45;2.60;;;1.80;;
7076;SDS011;3579;48.956;9.154;2023-07-20T10:27:13;6.70;;;2.10;;
7076;SDS011;3579;48.956;9.154;2023-07-20T10:29:40;4.07;;;2.13;;
7076;SDS011;3579;48.956;9.154;2023-07-20T10:32:08;3.77;;;2.13;;
7076;SDS011;3579;48.956;9.154;2023-07-20T10:34:35;5.77;;;2.00;;
7076;SDS011;3579;48.956;9.154;2023-07-20T10:37:01;2.93;;;1.83;;
7076;SDS011;3579;48.956;9.154;2023-07-20T10:39:28;2.47;;;1.83;;
7076;SDS011;3579;48.956;9.154;2023-07-20T10:42:06;4.60;;;1.70;;
7076;SDS011;3579;48.956;9.154;2023-07-20T10:44:33;4.53;;;1.50;;
7076;SDS011;3579;48.956;9.154;2023-07-20T10:47:03;5.07;;;1.80;;
7076;SDS011;3579;48.956;9.154;2023-07-20T10:49:34;3.80;;;1.90;;
7076;SDS011;3579;48.956;9.154;2023-07-20T10:52:04;3.20;;;1.90;;
7076;SDS011;3579;48.956;9.154;2023-07-20T10:57:21;2.43;;;1.70;;
7076;SDS011;3579;48.956;9.154;2023-07-20T11:00:13;4.17;;;1.80;;
7076;SDS011;3579;48.956;9.154;2023-07-20T11:02:44;4.03;;;1.93;;
7076;SDS011;3579;48.956;9.154;2023-07-20T11:08:09;3.63;;;1.80;;
7076;SDS011;3579;48.956;9.154;2023-07-20T11:10:36;5.13;;;1.73;;
7076;SDS011;3579;48.956;9.154;2023-07-20T11:15:45;3.10;;;2.00;;
7076;SDS011;3579;48.956;9.154;2023-07-20T11:18:27;3.50;;;1.90;;
7076;SDS011;3579;48.956;9.154;2023-07-20T11:20:54;4.13;;;1.93;;
7076;SDS011;3579;48.956;9.154;2023-07-20T11:23:20;4.50;;;1.63;;
7076;SDS011;3579;48.956;9.154;2023-07-20T11:25:46;5.73;;;1.83;;
7076;SDS011;3579;48.956;9.154;2023-07-20T11:28:12;3.37;;;1.77;;
7076;SDS011;3579;48.956;9.154;2023-07-20T11:30:38;2.20;;;1.73;;
7076;SDS011;3579;48.956;9.154;2023-07-20T11:33:05;3.90;;;1.80;;
7076;SDS011;3579;48.956;9.154;2023-07-20T11:35:44;2.30;;;1.80;;
7076;SDS011;3579;48.956;9.154;2023-07-20T11:38:12;2.37;;;1.70;;
7076;SDS011;3579;48.956;9.154;2023-07-20T11:40:45;6.20;;;1.80;;
7076;SDS011;3579;48.956;9.154;2023-07-20T11:43:13;6.00;;;1.80;;
7076;SDS011;3579;48.956;9.154;2023-07-20T11:45:40;3.13;;;1.80;;
7076;SDS011;3579;48.956;9.154;2023-07-20T11:48:06;3.30;;;2.03;;
7076;SDS011;3579;48.956;9.154;2023-07-20T11:50:38;6.27;;;2.10;;
7076;SDS011;3579;48.956;9.154;2023-07-20T11:53:05;2.73;;;1.80;;
7076;SDS011;3579;48.956;9.154;2023-07-20T11:55:32;3.47;;;1.70;;
7076;SDS011;3579;48.956;9.154;2023-07-20T11:58:05;2.03;;;1.70;;
7076;SDS011;3579;48.956;9.154;2023-07-20T12:00:32;2.80;;;1.80;;
7076;SDS011;3579;48.956;9.154;2023-07-20T12:03:00;3.87;;;2.00;;
7076;SDS011;3579;48.956;9.154;2023-07-20T12:05:26;5.20;;;2.03;;
7076;SDS011;3579;48.956;9.154;2023-07-20T12:07:54;2.70;;;1.93;;
7076;SDS011;3579;48.956;9.154;2023-07-20T12:10:24;3.33;;;1.77;;
7076;SDS011;3579;48.956;9.154;2023-07-20T12:12:51;3.10;;;2.07;;
7076;SDS011;3579;48.956;9.154;2023-07-20T12:17:55;2.60;;;1.90;;
7076;SDS011;3579;48.956;9.154;2023-07-20T12:20:33;3.00;;;1.90;;
7076;SDS011;3579;48.956;9.154;2023-07-20T12:23:03;6.03;;;1.90;;
7076;SDS011;3579;48.956;9.154;2023-07-20T12:28:04;3.13;;;1.70;;
7076;SDS011;3579;48.956;9.154;2023-07-20T12:30:32;5.03;;;1.80;;
7076;SDS011;3579;48.956;9.154;2023-07-20T12:32:58;4.53;;;1.87;;
7076;SDS011;3579;48.956;9.154;2023-07-20T12:35:25;3.03;;;1.70;;
7076;SDS011;3579;48.956;9.154;2023-07-20T12:37:51;2.93;;;2.03;;
7076;SDS011;3579;48.956;9.154;2023-07-20T12:40:19;2.00;;;1.80;;
7076;SDS011;3579;48.956;9.154;2023-07-20T12:42:45;7.13;;;2.03;;
7076;SDS011;3579;48.956;9.154;2023-07-20T12:45:12;3.70;;;2.00;;
7076;SDS011;3579;48.956;9.154;2023-07-20T12:47:39;3.33;;;1.83;;
7076;SDS011;3579;48.956;9.154;2023-07-20T12:50:07;2.60;;;1.70;;
7076;SDS011;3579;48.956;9.154;2023-07-20T12:55:33;4.17;;;1.60;;
7076;SDS011;3579;48.956;9.154;2023-07-20T12:57:59;3.03;;;1.80;;
7076;SDS011;3579;48.956;9.154;2023-07-20T13:00:26;3.60;;;2.00;;
7076;SDS011;3579;48.956;9.154;2023-07-20T13:02:52;6.20;;;1.87;;
7076;SDS011;3579;48.956;9.154;2023-07-20T13:05:18;8.47;;;1.90;;
7076;SDS011;3579;48.956;9.154;2023-07-20T13:07:45;3.93;;;1.60;;
7076;SDS011;3579;48.956;9.154;2023-07-20T13:10:11;2.80;;;1.80;;
7076;SDS011;3579;48.956;9.154;2023-07-20T13:12:38;5.47;;;2.00;;
7076;SDS011;3579;48.956;9.154;2023-07-20T13:15:08;3.00;;;1.93;;
7076;SDS011;3579;48.956;9.154;2023-07-20T13:17:37;5.57;;;2.10;;
7076;SDS011;3579;48.956;9.154;2023-07-20T13:20:05;5.97;;;2.00;;
7076;SDS011;3579;48.956;9.154;2023-07-20T13:22:33;6.30;;;2.00;;
7076;SDS011;3579;48.956;9.154;2023-07-20T13:25:00;3.27;;;2.10;;
7076;SDS011;3579;48.956;9.154;2023-07-20T13:27:27;3.87;;;1.80;;
7076;SDS011;3579;48.956;9.154;2023-07-20T13:29:53;3.63;;;2.00;;
7076;SDS011;3579;48.956;9.154;2023-07-20T13:32:19;4.90;;;1.93;;
7076;SDS011;3579;48.956;9.154;2023-07-20T13:34:45;4.13;;;2.10;;
7076;SDS011;3579;48.956;9.154;2023-07-20T13:37:12;3.23;;;1.90;;
7076;SDS011;3579;48.956;9.154;2023-07-20T13:39:38;6.43;;;2.27;;
7076;SDS011;3579;48.956;9.154;2023-07-20T13:42:04;7.90;;;2.00;;
7076;SDS011;3579;48.956;9.154;2023-07-20T13:44:31;3.20;;;1.90;;
7076;SDS011;3579;48.956;9.154;2023-07-20T13:46:58;6.60;;;2.13;;
7076;SDS011;3579;48.956;9.154;2023-07-20T13:49:24;4.00;;;1.97;;
7076;SDS011;3579;48.956;9.154;2023-07-20T13:51:50;3.07;;;1.93;;
7076;SDS011;3579;48.956;9.154;2023-07-20T13:54:16;5.10;;;2.00;;
7076;SDS011;3579;48.956;9.154;2023-07-20T13:56:42;7.60;;;2.10;;
7076;SDS011;3579;48.956;9.154;2023-07-20T13:59:08;4.00;;;2.00;;
7076;SDS011;3579;48.956;9.154;2023-07-20T14:01:34;3.03;;;1.90;;
7076;SDS011;3579;48.956;9.154;2023-07-20T14:04:01;2.90;;;1.90;;
7076;SDS011;3579;48.956;9.154;2023-07-20T14:06:29;3.27;;;1.90;;
7076;SDS011;3579;48.956;9.154;2023-07-20T14:08:56;2.33;;;1.73;;
7076;SDS011;3579;48.956;9.154;2023-07-20T14:11:23;2.23;;;1.80;;
7076;SDS011;3579;48.956;9.154;2023-07-20T14:13:49;2.17;;;1.50;;
7076;SDS011;3579;48.956;9.154;2023-07-20T14:16:18;3.37;;;1.90;;
7076;SDS011;3579;48.956;9.154;2023-07-20T14:18:44;4.33;;;1.90;;
7076;SDS011;3579;48.956;9.154;2023-07-20T14:21:12;5.50;;;1.77;;
7076;SDS011;3579;48.956;9.154;2023-07-20T14:23:39;5.33;;;2.03;;
7076;SDS011;3579;48.956;9.154;2023-07-20T14:26:05;4.37;;;1.77;;
7076;SDS011;3579;48.956;9.154;2023-07-20T14:28:32;4.30;;;2.00;;
7076;SDS011;3579;48.956;9.154;2023-07-20T14:30:58;5.97;;;1.87;;
7076;SDS011;3579;48.956;9.154;2023-07-20T14:33:25;4.17;;;1.97;;
7076;SDS011;3579;48.956;9.154;2023-07-20T14:35:51;3.47;;;1.83;;
7076;SDS011;3579;48.956;9.154;2023-07-20T14:38:17;2.07;;;1.67;;
7076;SDS011;3579;48.956;9.154;2023-07-20T14:40:43;3.93;;;2.07;;
7076;SDS011;3579;48.956;9.154;2023-07-20T14:43:10;4.03;;;1.90;;
7076;SDS011;3579;48.956;9.154;2023-07-20T14:45:36;5.27;;;1.77;;
7076;SDS011;3579;48.956;9.154;2023-07-20T14:48:03;3.60;;;2.00;;
7076;SDS011;3579;48.956;9.154;2023-07-20T14:50:30;2.80;;;1.90;;
7076;SDS011;3579;48.956;9.154;2023-07-20T14:52:56;3.10;;;1.90;;
7076;SDS011;3579;48.956;9.154;2023-07-20T14:55:22;3.63;;;1.80;;
7076;SDS011;3579;48.956;9.154;2023-07-20T14:57:48;4.17;;;1.80;;
7076;SDS011;3579;48.956;9.154;2023-07-20T15:00:14;4.83;;;2.00;;
7076;SDS011;3579;48.956;9.154;2023-07-20T15:02:40;2.20;;;1.70;;
7076;SDS011;3579;48.956;9.154;2023-07-20T15:05:07;3.30;;;1.63;;
7076;SDS011;3579;48.956;9.154;2023-07-20T15:07:34;7.07;;;1.97;;
7076;SDS011;3579;48.956;9.154;2023-07-20T15:10:01;3.13;;;1.80;;
7076;SDS011;3579;48.956;9.154;2023-07-20T15:12:29;2.60;;;1.80;;
7076;SDS011;3579;48.956;9.154;2023-07-20T15:15:03;2.47;;;1.57;;
7076;SDS011;3579;48.956;9.154;2023-07-20T15:17:37;3.20;;;2.03;;
7076;SDS011;3579;48.956;9.154;2023-07-20T15:20:05;1.97;;;1.57;;
7076;SDS011;3579;48.956;9.154;2023-07-20T15:22:34;3.37;;;1.57;;
7076;SDS011;3579;48.956;9.154;2023-07-20T15:25:07;3.07;;;1.57;;
7076;SDS011;3579;48.956;9.154;2023-07-20T15:27:34;2.90;;;1.80;;
7076;SDS011;3579;48.956;9.154;2023-07-20T15:30:00;3.53;;;1.80;;
7076;SDS011;3579;48.956;9.154;2023-07-20T15:32:26;2.27;;;1.67;;
7076;SDS011;3579;48.956;9.154;2023-07-20T15:34:52;2.87;;;1.70;;
7076;SDS011;3579;48.956;9.154;2023-07-20T15:37:19;2.13;;;1.63;;
7076;SDS011;3579;48.956;9.154;2023-07-20T15:39:48;3.27;;;1.53;;
7076;SDS011;3579;48.956;9.154;2023-07-20T15:42:14;5.40;;;1.77;;
7076;SDS011;3579;48.956;9.154;2023-07-20T15:44:41;2.13;;;1.53;;